Time;durP1;ratioP1;P1;durP2;ratioP2;P2;SDS_P1;SDS_P2;PMS_P1;PMS_P2;Temp;Humidity;BMP_temperature;BMP_pressure;BME280_temperature;BME280_humidity;BME280_pressure;Samples;Min_cycle;Max_cycle;Signal;HPM_P1;HPM_P2
2022/09/15 00:02:01;;;;;;;;;;;15.60;99.90;;;;;;5129195;27;19927;-73
2022/09/15 00:04:27;;;;;;;;;;;15.60;99.90;;;;;;5131085;27;19924;-72
2022/09/15 00:06:53;;;;;;;;;;;15.60;99.90;;;;;;5129477;27;19924;-72
2022/09/15 00:09:18;;;;;;;;;;;15.60;99.90;;;;;;5130463;27;20444;-72
2022/09/15 00:11:44;;;;;;;;;;;15.60;99.90;;;;;;5130763;27;19930;-73
2022/09/15 00:14:09;;;;;;;;;;;15.60;99.90;;;;;;5100783;28;19924;-73
2022/09/15 00:16:35;;;;;;;;;;;15.60;99.90;;;;;;5114170;27;20234;-74
2022/09/15 00:19:01;;;;;;;;;;;15.50;99.90;;;;;;5118732;27;20298;-73
2022/09/15 00:21:28;;;;;;;;;;;15.60;99.90;;;;;;5122531;27;19923;-73
2022/09/15 00:23:53;;;;;;;;;;;15.60;99.90;;;;;;5109764;28;20539;-72
2022/09/15 00:26:21;;;;;;;;;;;15.60;99.90;;;;;;5128028;27;20021;-72
2022/09/15 00:28:46;;;;;;;;;;;15.60;99.90;;;;;;5121396;27;20005;-73
2022/09/15 00:31:13;;;;;;;;;;;15.60;99.90;;;;;;5130632;27;20403;-73
2022/09/15 00:33:39;;;;;;;;;;;15.60;99.90;;;;;;5120626;27;20304;-73
2022/09/15 00:36:06;;;;;;;;;;;15.60;99.90;;;;;;5130039;27;19923;-73
2022/09/15 00:38:32;;;;;;;;;;;15.60;99.90;;;;;;5130300;27;19930;-73
2022/09/15 00:40:58;;;;;;;;;;;15.70;99.90;;;;;;5129476;27;19927;-73
2022/09/15 00:43:43;;;;;;;;;;;15.60;99.90;;;;;;5130508;27;19958;-73
2022/09/15 00:46:09;;;;;;;;;;;15.60;99.90;;;;;;5098851;28;19923;-73
2022/09/15 00:48:36;;;;;;;;;;;15.60;99.90;;;;;;5130248;27;19923;-73
2022/09/15 00:51:03;;;;;;;;;;;15.60;99.90;;;;;;5117620;28;19923;-73
2022/09/15 00:53:29;;;;;;;;;;;15.70;99.90;;;;;;5116181;28;19950;-73
2022/09/15 00:55:55;;;;;;;;;;;15.60;99.90;;;;;;5112502;28;19931;-72
2022/09/15 00:58:23;;;;;;;;;;;15.60;99.90;;;;;;5130016;28;19923;-73
2022/09/15 01:00:52;;;;;;;;;;;15.60;99.90;;;;;;5130858;28;19923;-73
2022/09/15 01:03:17;;;;;;;;;;;15.70;99.90;;;;;;5117047;27;19977;-72
2022/09/15 01:05:45;;;;;;;;;;;15.70;99.90;;;;;;5128525;28;20361;-72
2022/09/15 01:08:15;;;;;;;;;;;15.70;99.90;;;;;;5116265;28;20382;-73
2022/09/15 01:10:40;;;;;;;;;;;15.70;99.90;;;;;;5130562;28;19923;-73
2022/09/15 01:13:07;;;;;;;;;;;15.70;99.90;;;;;;5117147;28;20492;-70
2022/09/15 01:15:52;;;;;;;;;;;15.70;99.90;;;;;;5129575;28;19923;-72
2022/09/15 01:18:23;;;;;;;;;;;15.70;99.90;;;;;;5121153;28;19938;-72
2022/09/15 01:20:59;;;;;;;;;;;15.70;99.90;;;;;;5130448;28;19971;-71
2022/09/15 01:23:25;;;;;;;;;;;15.70;99.90;;;;;;5117666;27;19931;-72
2022/09/15 01:26:10;;;;;;;;;;;15.70;99.90;;;;;;5115847;27;19923;-71
2022/09/15 01:28:54;;;;;;;;;;;15.70;99.90;;;;;;5116464;28;19978;-72
2022/09/15 01:33:02;;;;;;;;;;;15.70;99.90;;;;;;5129888;28;19924;-70
2022/09/15 01:34:23;;;;;;;;;;;15.70;99.90;;;;;;5133125;27;19930;-72
2022/09/15 01:36:53;;;;;;;;;;;15.70;99.90;;;;;;5134345;27;20010;-72
2022/09/15 01:39:22;;;;;;;;;;;15.70;99.90;;;;;;5122290;27;20030;-73
2022/09/15 01:42:05;;;;;;;;;;;15.70;99.90;;;;;;5131931;27;20420;-73
2022/09/15 01:44:33;;;;;;;;;;;15.60;99.90;;;;;;5131853;27;19931;-72
2022/09/15 01:47:01;;;;;;;;;;;15.60;99.90;;;;;;5115330;27;20431;-73
2022/09/15 01:49:45;;;;;;;;;;;15.60;99.90;;;;;;5123159;27;20041;-72
2022/09/15 01:52:13;;;;;;;;;;;15.60;99.90;;;;;;5133185;27;19930;-71
2022/09/15 01:54:41;;;;;;;;;;;15.70;99.90;;;;;;5132867;27;20022;-72
2022/09/15 01:57:06;;;;;;;;;;;15.60;99.90;;;;;;5133230;27;19933;-72
2022/09/15 01:59:32;;;;;;;;;;;15.60;99.90;;;;;;5133132;27;20338;-72
2022/09/15 02:02:02;;;;;;;;;;;15.60;99.90;;;;;;5133653;27;19924;-72
2022/09/15 02:04:40;;;;;;;;;;;15.60;99.90;;;;;;5133244;27;19924;-72
2022/09/15 02:07:12;;;;;;;;;;;15.70;99.90;;;;;;5133548;27;20547;-72
2022/09/15 02:09:54;;;;;;;;;;;15.60;99.90;;;;;;5132613;27;19932;-72
2022/09/15 02:12:32;;;;;;;;;;;15.60;99.90;;;;;;5133191;27;19934;-71
2022/09/15 02:15:03;;;;;;;;;;;15.60;99.90;;;;;;5121012;27;20300;-71
2022/09/15 02:17:31;;;;;;;;;;;15.60;99.90;;;;;;5132338;27;19923;-71
2022/09/15 02:20:04;;;;;;;;;;;15.60;99.90;;;;;;5130314;27;19927;-71
2022/09/15 02:22:30;;;;;;;;;;;15.50;99.90;;;;;;5120543;27;19928;-71
2022/09/15 02:25:04;;;;;;;;;;;15.50;99.90;;;;;;5114394;27;20409;-73
2022/09/15 02:27:32;;;;;;;;;;;15.50;99.90;;;;;;5119320;27;19923;-71
2022/09/15 02:30:01;;;;;;;;;;;15.50;99.90;;;;;;5132669;27;19932;-71
2022/09/15 02:32:28;;;;;;;;;;;15.50;99.90;;;;;;5132411;27;19923;-72
2022/09/15 02:34:55;;;;;;;;;;;15.50;99.90;;;;;;5118807;27;19983;-73
2022/09/15 02:37:21;;;;;;;;;;;15.40;99.90;;;;;;5110660;28;19927;-73
2022/09/15 02:39:53;;;;;;;;;;;15.40;99.90;;;;;;5131736;27;19931;-71
2022/09/15 02:42:26;;;;;;;;;;;15.40;99.90;;;;;;5123216;27;19997;-73
2022/09/15 02:44:52;;;;;;;;;;;15.40;99.90;;;;;;5132162;27;19923;-72
2022/09/15 02:47:17;;;;;;;;;;;15.40;99.90;;;;;;5132827;27;19930;-72
2022/09/15 02:49:43;;;;;;;;;;;15.40;99.90;;;;;;5113802;27;20006;-74
2022/09/15 02:52:08;;;;;;;;;;;15.50;99.90;;;;;;5111841;28;20061;-73
2022/09/15 02:54:34;;;;;;;;;;;15.40;99.90;;;;;;5130057;27;19981;-73
2022/09/15 02:57:00;;;;;;;;;;;15.40;99.90;;;;;;5132271;27;19923;-73
2022/09/15 02:59:25;;;;;;;;;;;15.40;99.90;;;;;;5131779;27;19924;-73
2022/09/15 03:01:52;;;;;;;;;;;15.40;99.90;;;;;;5131405;27;20305;-73
2022/09/15 03:04:18;;;;;;;;;;;15.40;99.90;;;;;;5131478;27;20019;-73
2022/09/15 03:06:43;;;;;;;;;;;15.40;99.90;;;;;;5124809;27;20002;-72
2022/09/15 03:09:09;;;;;;;;;;;15.30;99.90;;;;;;5122661;27;19928;-73
2022/09/15 03:11:35;;;;;;;;;;;15.40;99.90;;;;;;5130771;27;19923;-73
2022/09/15 03:14:02;;;;;;;;;;;15.40;99.90;;;;;;5131587;27;20010;-73
2022/09/15 03:16:28;;;;;;;;;;;15.40;99.90;;;;;;5130361;27;19988;-72
2022/09/15 03:18:54;;;;;;;;;;;15.40;99.90;;;;;;5132257;27;20397;-72
2022/09/15 03:21:20;;;;;;;;;;;15.40;99.90;;;;;;5130245;27;20018;-73
2022/09/15 03:23:46;;;;;;;;;;;15.30;99.90;;;;;;5131318;27;20018;-73
2022/09/15 03:26:11;;;;;;;;;;;15.40;99.80;;;;;;5129949;27;19976;-73
2022/09/15 03:28:37;;;;;;;;;;;15.40;99.60;;;;;;5129586;27;19924;-73
2022/09/15 03:31:04;;;;;;;;;;;15.30;99.50;;;;;;5104114;27;19924;-73
2022/09/15 03:33:30;;;;;;;;;;;15.30;99.40;;;;;;5113444;27;19970;-73
2022/09/15 03:35:56;;;;;;;;;;;15.30;99.40;;;;;;5123237;27;19974;-73
2022/09/15 03:38:22;;;;;;;;;;;15.30;99.30;;;;;;5130913;27;19927;-73
2022/09/15 03:41:01;;;;;;;;;;;15.30;99.30;;;;;;5132256;27;19923;-73
2022/09/15 03:43:27;;;;;;;;;;;15.30;99.30;;;;;;5117653;27;19976;-73
2022/09/15 03:45:53;;;;;;;;;;;15.30;99.30;;;;;;5125472;27;19969;-72
2022/09/15 03:48:18;;;;;;;;;;;15.30;99.30;;;;;;5123976;27;19924;-71
2022/09/15 03:50:44;;;;;;;;;;;15.30;99.00;;;;;;5118271;27;19931;-70
2022/09/15 03:53:10;;;;;;;;;;;15.30;99.00;;;;;;5130710;27;19923;-73
2022/09/15 03:55:35;;;;;;;;;;;15.30;98.80;;;;;;5130280;27;19931;-70
2022/09/15 03:58:01;;;;;;;;;;;15.30;98.60;;;;;;5118556;27;19924;-71
2022/09/15 04:00:26;;;;;;;;;;;15.30;98.70;;;;;;5110570;28;19924;-72
2022/09/15 04:02:52;;;;;;;;;;;15.30;98.90;;;;;;5129605;27;20389;-73
2022/09/15 04:05:17;;;;;;;;;;;15.30;99.30;;;;;;5118677;27;20294;-74
2022/09/15 04:07:43;;;;;;;;;;;15.40;99.70;;;;;;5128793;27;19956;-72
2022/09/15 04:10:08;;;;;;;;;;;15.30;99.70;;;;;;5130773;27;19930;-72
2022/09/15 04:12:35;;;;;;;;;;;15.30;99.60;;;;;;5130467;27;19976;-73
2022/09/15 04:15:01;;;;;;;;;;;15.30;99.50;;;;;;5100914;28;19968;-72
2022/09/15 04:17:27;;;;;;;;;;;15.30;99.30;;;;;;5128927;27;19928;-72
2022/09/15 04:19:52;;;;;;;;;;;15.30;99.20;;;;;;5120990;27;19930;-72
2022/09/15 04:22:18;;;;;;;;;;;15.30;99.00;;;;;;5130711;27;19957;-72
2022/09/15 04:24:46;;;;;;;;;;;15.30;98.70;;;;;;5118496;27;19924;-73
2022/09/15 04:27:12;;;;;;;;;;;15.30;98.60;;;;;;5124242;27;20376;-72
2022/09/15 04:29:38;;;;;;;;;;;15.30;98.40;;;;;;5110775;28;19977;-72
2022/09/15 04:32:03;;;;;;;;;;;15.20;98.10;;;;;;5116106;27;19930;-72
2022/09/15 04:34:29;;;;;;;;;;;15.20;98.00;;;;;;5117966;27;19927;-72
2022/09/15 04:36:54;;;;;;;;;;;15.20;97.70;;;;;;5129127;27;19965;-72
2022/09/15 04:39:20;;;;;;;;;;;15.20;97.50;;;;;;5130655;28;19966;-73
2022/09/15 04:41:45;;;;;;;;;;;15.10;97.30;;;;;;5130502;27;20437;-73
2022/09/15 04:44:11;;;;;;;;;;;15.20;97.20;;;;;;5130325;27;19923;-73
2022/09/15 04:46:36;;;;;;;;;;;15.20;97.30;;;;;;5126244;27;19928;-72
2022/09/15 04:49:02;;;;;;;;;;;15.20;97.20;;;;;;5121707;28;19923;-72
2022/09/15 04:51:28;;;;;;;;;;;15.20;97.20;;;;;;5107763;28;19927;-73
2022/09/15 04:53:53;;;;;;;;;;;15.20;97.20;;;;;;5110577;28;20270;-72
2022/09/15 04:56:20;;;;;;;;;;;15.20;97.20;;;;;;5104759;28;19935;-71
2022/09/15 04:58:48;;;;;;;;;;;15.20;97.20;;;;;;5121697;28;19941;-71
2022/09/15 05:01:15;;;;;;;;;;;15.20;97.30;;;;;;5116091;28;20335;-71
2022/09/15 05:03:41;;;;;;;;;;;15.20;97.30;;;;;;5120418;28;19984;-72
2022/09/15 05:06:08;;;;;;;;;;;15.20;97.40;;;;;;5129811;27;19931;-72
2022/09/15 05:08:34;;;;;;;;;;;15.20;97.40;;;;;;5133170;27;19971;-72
2022/09/15 05:11:04;;;;;;;;;;;15.20;97.40;;;;;;5129112;27;19970;-72
2022/09/15 05:13:29;;;;;;;;;;;15.20;97.50;;;;;;5126386;27;19934;-73
2022/09/15 05:15:55;;;;;;;;;;;15.20;97.70;;;;;;5120854;27;19923;-73
2022/09/15 05:18:21;;;;;;;;;;;15.20;98.00;;;;;;5133638;27;19930;-72
2022/09/15 05:20:46;;;;;;;;;;;15.20;98.20;;;;;;5120705;27;19931;-72
2022/09/15 05:23:12;;;;;;;;;;;15.20;98.50;;;;;;5122204;27;19927;-73
2022/09/15 05:25:37;;;;;;;;;;;15.30;99.10;;;;;;5132379;27;19923;-71
2022/09/15 05:28:03;;;;;;;;;;;15.30;99.10;;;;;;5133976;27;19968;-71
2022/09/15 05:30:29;;;;;;;;;;;15.30;99.10;;;;;;5130689;27;19980;-71
2022/09/15 05:32:55;;;;;;;;;;;15.30;99.20;;;;;;5131698;27;20371;-72
2022/09/15 05:35:22;;;;;;;;;;;15.30;99.20;;;;;;5134139;27;19980;-71
2022/09/15 05:37:48;;;;;;;;;;;15.30;99.20;;;;;;5133708;27;20447;-71
2022/09/15 05:40:14;;;;;;;;;;;15.30;99.40;;;;;;5134119;27;20002;-71
2022/09/15 05:42:39;;;;;;;;;;;15.30;99.50;;;;;;5133596;27;19927;-70
2022/09/15 05:45:05;;;;;;;;;;;15.30;99.40;;;;;;5134143;27;19923;-70
2022/09/15 05:47:31;;;;;;;;;;;15.20;99.30;;;;;;5133543;27;19927;-72
2022/09/15 05:49:56;;;;;;;;;;;15.20;99.40;;;;;;5130050;27;20302;-72
2022/09/15 05:52:22;;;;;;;;;;;15.20;99.50;;;;;;5115195;27;19923;-71
2022/09/15 05:54:47;;;;;;;;;;;15.30;99.70;;;;;;5131506;27;20648;-72
2022/09/15 05:57:13;;;;;;;;;;;15.30;99.70;;;;;;5114755;27;20351;-72
2022/09/15 05:59:40;;;;;;;;;;;15.30;99.80;;;;;;5126564;27;19923;-72
2022/09/15 06:02:07;;;;;;;;;;;15.30;99.80;;;;;;5118487;27;20287;-71
2022/09/15 06:04:33;;;;;;;;;;;15.30;99.60;;;;;;5121057;27;19943;-71
2022/09/15 06:06:59;;;;;;;;;;;15.30;99.60;;;;;;5125971;27;20251;-71
2022/09/15 06:09:25;;;;;;;;;;;15.30;99.40;;;;;;5127249;27;19983;-72
2022/09/15 06:11:51;;;;;;;;;;;15.30;99.20;;;;;;5097240;28;20053;-72
2022/09/15 06:14:16;;;;;;;;;;;15.30;99.10;;;;;;5116589;27;20014;-71
2022/09/15 06:16:42;;;;;;;;;;;15.40;99.10;;;;;;5127575;27;19934;-72
2022/09/15 06:19:07;;;;;;;;;;;15.40;99.10;;;;;;5131588;27;19923;-72
2022/09/15 06:21:33;;;;;;;;;;;15.50;99.00;;;;;;5099784;27;19923;-72
2022/09/15 06:24:03;;;;;;;;;;;15.50;98.90;;;;;;5113250;27;19932;-70
2022/09/15 06:26:29;;;;;;;;;;;15.50;98.80;;;;;;5120930;27;19950;-72
2022/09/15 06:28:59;;;;;;;;;;;15.50;98.70;;;;;;5113611;27;19928;-72
2022/09/15 06:31:26;;;;;;;;;;;15.50;98.80;;;;;;5112517;27;19928;-72
2022/09/15 06:33:52;;;;;;;;;;;15.50;98.90;;;;;;5112769;27;20389;-72
2022/09/15 06:36:19;;;;;;;;;;;15.50;99.20;;;;;;5124882;27;19934;-72
2022/09/15 06:38:44;;;;;;;;;;;15.50;99.20;;;;;;5126260;27;19930;-72
2022/09/15 06:41:10;;;;;;;;;;;15.50;99.20;;;;;;5134369;27;19923;-72
2022/09/15 06:43:36;;;;;;;;;;;15.50;99.10;;;;;;5136192;27;19939;-72
2022/09/15 06:46:03;;;;;;;;;;;15.50;99.20;;;;;;5132589;27;20972;-72
2022/09/15 06:48:30;;;;;;;;;;;15.50;99.30;;;;;;5132610;27;19927;-70
2022/09/15 06:50:57;;;;;;;;;;;15.50;99.30;;;;;;5131100;27;19942;-72
2022/09/15 06:53:22;;;;;;;;;;;15.50;99.40;;;;;;5133071;27;19938;-72
2022/09/15 06:55:48;;;;;;;;;;;15.40;99.40;;;;;;5131544;27;20006;-70
2022/09/15 06:58:14;;;;;;;;;;;15.40;99.50;;;;;;5120028;27;19976;-70
2022/09/15 07:00:39;;;;;;;;;;;15.40;99.60;;;;;;5132350;27;19933;-70
2022/09/15 07:03:05;;;;;;;;;;;15.40;99.70;;;;;;5132923;27;19923;-70
2022/09/15 07:05:30;;;;;;;;;;;15.50;99.90;;;;;;5130803;27;19923;-70
2022/09/15 07:07:56;;;;;;;;;;;15.50;99.90;;;;;;5131914;27;20579;-71
2022/09/15 07:10:21;;;;;;;;;;;15.60;99.90;;;;;;5131959;27;19930;-70
2022/09/15 07:12:47;;;;;;;;;;;15.60;99.90;;;;;;5133382;27;19939;-71
2022/09/15 07:15:12;;;;;;;;;;;15.70;99.90;;;;;;5147474;27;19927;-70
2022/09/15 07:17:38;;;;;;;;;;;15.70;99.90;;;;;;5147962;27;19923;-70
2022/09/15 07:20:04;;;;;;;;;;;15.80;99.90;;;;;;5147778;27;19982;-70
2022/09/15 07:22:29;;;;;;;;;;;15.80;99.90;;;;;;5148884;27;19927;-70
2022/09/15 07:24:55;;;;;;;;;;;15.90;99.90;;;;;;5143342;27;19984;-72
2022/09/15 07:27:25;;;;;;;;;;;15.90;99.90;;;;;;5146167;27;20429;-71
2022/09/15 07:29:50;;;;;;;;;;;15.90;99.90;;;;;;5132053;27;19937;-72
2022/09/15 07:32:16;;;;;;;;;;;16.00;99.90;;;;;;5122242;27;20018;-72
2022/09/15 07:34:41;;;;;;;;;;;16.00;99.90;;;;;;5122109;27;19927;-72
2022/09/15 07:37:07;;;;;;;;;;;16.00;99.90;;;;;;5131804;27;20354;-71
2022/09/15 07:39:32;;;;;;;;;;;16.10;99.90;;;;;;5115637;27;19935;-72
2022/09/15 07:41:58;;;;;;;;;;;16.10;99.90;;;;;;5126354;27;20329;-71
2022/09/15 07:44:24;;;;;;;;;;;16.10;99.90;;;;;;5126009;27;20000;-72
2022/09/15 07:46:49;;;;;;;;;;;16.10;99.90;;;;;;5130305;27;19934;-73
2022/09/15 07:49:15;;;;;;;;;;;16.20;99.90;;;;;;5131409;27;20300;-69
2022/09/15 07:51:41;;;;;;;;;;;16.30;99.90;;;;;;5130421;27;19927;-70
2022/09/15 07:54:07;;;;;;;;;;;16.40;99.70;;;;;;5119680;27;19928;-70
2022/09/15 07:56:33;;;;;;;;;;;16.50;99.40;;;;;;5131184;27;20258;-68
2022/09/15 07:58:58;;;;;;;;;;;16.60;99.30;;;;;;5131974;27;20304;-69
2022/09/15 08:01:24;;;;;;;;;;;16.80;99.10;;;;;;5131039;27;19934;-70
2022/09/15 08:03:50;;;;;;;;;;;16.80;99.00;;;;;;5131462;27;20011;-70
2022/09/15 08:06:17;;;;;;;;;;;16.90;98.80;;;;;;5131461;27;20018;-70
2022/09/15 08:08:42;;;;;;;;;;;16.90;98.70;;;;;;5131453;27;19927;-71
2022/09/15 08:11:09;;;;;;;;;;;16.90;98.70;;;;;;5130044;27;20012;-69
2022/09/15 08:13:35;;;;;;;;;;;16.90;98.90;;;;;;5119345;27;19931;-71
2022/09/15 08:16:08;;;;;;;;;;;17.10;98.90;;;;;;5130777;27;20433;-69
2022/09/15 08:18:34;;;;;;;;;;;17.30;99.00;;;;;;5121814;27;20004;-70
2022/09/15 08:21:02;;;;;;;;;;;17.30;99.10;;;;;;5119017;27;19949;-70
2022/09/15 08:23:28;;;;;;;;;;;17.30;99.50;;;;;;5119769;27;19930;-70
2022/09/15 08:25:53;;;;;;;;;;;17.10;99.90;;;;;;5130509;27;19967;-70
2022/09/15 08:28:19;;;;;;;;;;;16.80;99.90;;;;;;5129678;27;19924;-70
2022/09/15 08:30:44;;;;;;;;;;;16.60;99.90;;;;;;5130375;27;19950;-70
2022/09/15 08:33:10;;;;;;;;;;;16.40;99.90;;;;;;5129795;27;20289;-70
2022/09/15 08:35:36;;;;;;;;;;;16.40;99.90;;;;;;5116025;27;19931;-68
2022/09/15 08:38:01;;;;;;;;;;;16.30;99.90;;;;;;5119024;27;19934;-68
2022/09/15 08:40:29;;;;;;;;;;;16.30;99.90;;;;;;5130674;27;19931;-68
2022/09/15 08:42:56;;;;;;;;;;;16.30;99.90;;;;;;5130663;27;20142;-68
2022/09/15 08:45:24;;;;;;;;;;;16.30;99.90;;;;;;5130655;27;19932;-68
2022/09/15 08:47:54;;;;;;;;;;;16.40;99.90;;;;;;5122837;28;20432;-69
2022/09/15 08:50:27;;;;;;;;;;;16.40;99.90;;;;;;5130379;28;19924;-68
2022/09/15 08:53:08;;;;;;;;;;;16.40;99.90;;;;;;5130770;27;19924;-68
2022/09/15 08:55:44;;;;;;;;;;;16.40;99.90;;;;;;5118352;28;20393;-68
2022/09/15 08:58:14;;;;;;;;;;;16.40;99.90;;;;;;5130360;27;20030;-68
2022/09/15 09:00:40;;;;;;;;;;;16.50;99.90;;;;;;5130647;28;19931;-68
2022/09/15 09:03:15;;;;;;;;;;;16.50;99.90;;;;;;5118526;28;19927;-68
2022/09/15 09:05:41;;;;;;;;;;;16.60;99.90;;;;;;5130898;28;20056;-68
2022/09/15 09:08:29;;;;;;;;;;;16.80;99.90;;;;;;5129262;28;20025;-68
2022/09/15 09:11:17;;;;;;;;;;;16.90;99.90;;;;;;5089897;27;20014;-68
2022/09/15 09:13:48;;;;;;;;;;;17.10;99.90;;;;;;5130756;27;19934;-68
2022/09/15 09:16:14;;;;;;;;;;;17.30;99.30;;;;;;5127346;28;19924;-68
2022/09/15 09:18:46;;;;;;;;;;;17.50;99.00;;;;;;5130851;27;20353;-69
2022/09/15 09:21:11;;;;;;;;;;;18.20;97.80;;;;;;5130330;28;20300;-69
2022/09/15 09:23:48;;;;;;;;;;;18.80;96.60;;;;;;5128064;27;19927;-68
2022/09/15 09:26:14;;;;;;;;;;;19.20;95.40;;;;;;5130337;28;20010;-68
2022/09/15 09:28:48;;;;;;;;;;;19.20;94.30;;;;;;5103061;28;20018;-69
2022/09/15 09:31:16;;;;;;;;;;;19.20;93.70;;;;;;5124467;28;19923;-68
2022/09/15 09:33:43;;;;;;;;;;;19.40;93.00;;;;;;5117215;28;19927;-68
2022/09/15 09:36:10;;;;;;;;;;;19.60;93.50;;;;;;5116839;27;19980;-69
2022/09/15 09:38:37;;;;;;;;;;;19.60;93.50;;;;;;5091327;28;19923;-69
2022/09/15 09:41:11;;;;;;;;;;;19.60;93.30;;;;;;5120961;28;20068;-68
2022/09/15 09:43:36;;;;;;;;;;;19.50;92.70;;;;;;5125062;28;19975;-68
2022/09/15 09:46:08;;;;;;;;;;;19.50;92.80;;;;;;5120273;27;20596;-69
2022/09/15 09:48:34;;;;;;;;;;;19.50;92.90;;;;;;5129945;27;19927;-69
2022/09/15 09:50:59;;;;;;;;;;;19.70;93.20;;;;;;5109640;28;19930;-69
2022/09/15 09:53:27;;;;;;;;;;;19.90;92.80;;;;;;5118253;27;19924;-68
2022/09/15 09:55:54;;;;;;;;;;;20.30;92.70;;;;;;5119566;27;19930;-69
2022/09/15 09:58:23;;;;;;;;;;;20.50;92.10;;;;;;5109182;28;19931;-69
2022/09/15 10:00:50;;;;;;;;;;;20.40;91.90;;;;;;5125459;27;19924;-68
2022/09/15 10:03:18;;;;;;;;;;;20.10;92.00;;;;;;5132885;27;20498;-69
2022/09/15 10:05:45;;;;;;;;;;;19.80;92.10;;;;;;5130997;27;20303;-69
2022/09/15 10:08:14;;;;;;;;;;;19.50;92.70;;;;;;5133221;27;20317;-69
2022/09/15 10:10:48;;;;;;;;;;;19.20;93.10;;;;;;5131182;27;19951;-69
2022/09/15 10:13:13;;;;;;;;;;;18.80;93.80;;;;;;5129607;27;20300;-68
2022/09/15 10:15:39;;;;;;;;;;;18.50;94.30;;;;;;5123337;27;19924;-68
2022/09/15 10:18:05;;;;;;;;;;;18.30;94.50;;;;;;5129967;27;19928;-68
2022/09/15 10:20:34;;;;;;;;;;;18.40;94.90;;;;;;5104598;27;19930;-68
2022/09/15 10:23:01;;;;;;;;;;;18.90;95.30;;;;;;5121448;27;19983;-68
2022/09/15 10:25:31;;;;;;;;;;;19.80;94.60;;;;;;5133025;27;20300;-69
2022/09/15 10:28:17;;;;;;;;;;;20.50;94.10;;;;;;5118856;27;19924;-69
2022/09/15 10:31:01;;;;;;;;;;;20.90;92.10;;;;;;5119597;27;19980;-69
2022/09/15 10:33:33;;;;;;;;;;;20.50;91.70;;;;;;5127399;27;19946;-68
2022/09/15 10:36:16;;;;;;;;;;;20.20;92.20;;;;;;5131218;27;19933;-69
2022/09/15 10:38:42;;;;;;;;;;;20.00;92.50;;;;;;5130892;27;19935;-68
2022/09/15 10:41:26;;;;;;;;;;;20.10;92.20;;;;;;5128906;27;20017;-68
2022/09/15 10:44:00;;;;;;;;;;;19.90;92.50;;;;;;5129207;27;19968;-68
2022/09/15 10:46:34;;;;;;;;;;;19.70;92.00;;;;;;5129945;27;20453;-68
2022/09/15 10:49:06;;;;;;;;;;;19.30;92.20;;;;;;5130746;27;19924;-68
2022/09/15 10:51:34;;;;;;;;;;;18.70;94.10;;;;;;5132053;27;19953;-68
2022/09/15 10:54:10;;;;;;;;;;;18.20;94.80;;;;;;5128028;27;19932;-68
2022/09/15 10:56:39;;;;;;;;;;;17.90;95.40;;;;;;5131306;27;20328;-68
2022/09/15 10:59:31;;;;;;;;;;;17.70;95.90;;;;;;5097997;27;20398;-68
2022/09/15 11:02:03;;;;;;;;;;;17.70;96.40;;;;;;5128437;27;20282;-68
2022/09/15 11:04:39;;;;;;;;;;;17.70;96.30;;;;;;5131146;27;19927;-68
2022/09/15 11:07:16;;;;;;;;;;;17.80;96.80;;;;;;5125882;27;19924;-68
2022/09/15 11:09:44;;;;;;;;;;;17.90;96.90;;;;;;5102612;27;20389;-68
2022/09/15 11:12:15;;;;;;;;;;;17.90;97.70;;;;;;5116978;27;19931;-68
2022/09/15 11:14:50;;;;;;;;;;;17.80;97.70;;;;;;5111784;27;20409;-68
2022/09/15 11:17:25;;;;;;;;;;;17.70;97.80;;;;;;5118293;27;19945;-68
2022/09/15 11:19:56;;;;;;;;;;;17.50;98.40;;;;;;5114434;27;19931;-68
2022/09/15 11:22:33;;;;;;;;;;;16.90;99.40;;;;;;5121481;27;19923;-68
2022/09/15 11:25:05;;;;;;;;;;;16.50;99.90;;;;;;5126307;27;19923;-68
2022/09/15 11:27:35;;;;;;;;;;;16.20;99.90;;;;;;5125805;27;20006;-68
2022/09/15 11:30:04;;;;;;;;;;;15.90;99.90;;;;;;5125667;27;19932;-68
2022/09/15 11:32:33;;;;;;;;;;;15.70;99.90;;;;;;5103703;27;20721;-68
2022/09/15 11:35:18;;;;;;;;;;;15.50;99.90;;;;;;5130927;27;19930;-68
2022/09/15 11:37:46;;;;;;;;;;;15.40;99.90;;;;;;5089207;27;19993;-68
2022/09/15 11:40:14;;;;;;;;;;;15.40;99.90;;;;;;5131385;27;19924;-68
2022/09/15 11:43:12;;;;;;;;;;;15.40;99.90;;;;;;5125898;27;19975;-68
2022/09/15 11:45:42;;;;;;;;;;;15.50;99.90;;;;;;5060310;27;19931;-69
2022/09/15 11:48:12;;;;;;;;;;;15.80;99.90;;;;;;5127252;27;19924;-68
2022/09/15 11:50:40;;;;;;;;;;;16.40;99.90;;;;;;5130167;27;20026;-69
2022/09/15 11:53:15;;;;;;;;;;;17.00;99.90;;;;;;5120771;27;20749;-68
2022/09/15 11:55:43;;;;;;;;;;;17.30;99.90;;;;;;5130688;27;20397;-68
2022/09/15 11:58:32;;;;;;;;;;;17.10;99.90;;;;;;5124963;27;19978;-68
2022/09/15 12:01:00;;;;;;;;;;;16.90;99.90;;;;;;5121631;27;19925;-68
2022/09/15 12:03:30;;;;;;;;;;;16.60;99.90;;;;;;5103184;27;19949;-68
2022/09/15 12:05:57;;;;;;;;;;;16.40;99.90;;;;;;5115331;27;19930;-68
2022/09/15 12:08:40;;;;;;;;;;;16.20;99.90;;;;;;5126905;27;20386;-68
2022/09/15 12:11:17;;;;;;;;;;;16.10;99.90;;;;;;5129786;27;19976;-68
2022/09/15 12:13:43;;;;;;;;;;;16.10;99.90;;;;;;5124186;27;20336;-68
2022/09/15 12:16:09;;;;;;;;;;;16.00;99.90;;;;;;5128464;27;19969;-69
2022/09/15 12:18:53;;;;;;;;;;;15.90;99.90;;;;;;5116511;27;20496;-68
2022/09/15 12:21:32;;;;;;;;;;;15.90;99.90;;;;;;5127302;27;19927;-68
2022/09/15 12:23:58;;;;;;;;;;;15.90;99.90;;;;;;5122774;27;20313;-68
2022/09/15 12:26:25;;;;;;;;;;;15.90;99.90;;;;;;5122823;27;20016;-68
2022/09/15 12:28:53;;;;;;;;;;;15.90;99.90;;;;;;5094483;28;19938;-68
2022/09/15 12:31:22;;;;;;;;;;;15.90;99.90;;;;;;5128312;27;19923;-68
2022/09/15 12:34:06;;;;;;;;;;;16.00;99.90;;;;;;5119325;27;20612;-68
2022/09/15 12:36:44;;;;;;;;;;;16.10;99.90;;;;;;5124357;27;19972;-68
2022/09/15 12:39:28;;;;;;;;;;;16.20;99.90;;;;;;5126729;27;20275;-72
2022/09/15 12:42:03;;;;;;;;;;;16.30;99.90;;;;;;5129294;27;20495;-72
2022/09/15 12:44:28;;;;;;;;;;;16.40;99.90;;;;;;5119146;27;19924;-71
2022/09/15 12:46:55;;;;;;;;;;;16.50;99.90;;;;;;5099359;28;19951;-72
2022/09/15 12:49:26;;;;;;;;;;;16.70;99.90;;;;;;5127047;28;19971;-72
2022/09/15 12:51:51;;;;;;;;;;;17.10;99.90;;;;;;5123876;28;19923;-72
2022/09/15 12:54:21;;;;;;;;;;;17.70;99.90;;;;;;5119143;28;19923;-72
2022/09/15 12:56:50;;;;;;;;;;;18.30;99.90;;;;;;5130227;28;19930;-72
2022/09/15 12:59:15;;;;;;;;;;;18.50;99.90;;;;;;5126340;27;20407;-72
2022/09/15 13:01:48;;;;;;;;;;;18.80;99.90;;;;;;5124523;27;19928;-72
2022/09/15 13:04:43;;;;;;;;;;;18.90;99.90;;;;;;5126053;27;20002;-72
2022/09/15 13:07:15;;;;;;;;;;;18.70;99.90;;;;;;5126210;27;19973;-72
2022/09/15 13:09:42;;;;;;;;;;;18.30;99.90;;;;;;5129375;27;19923;-73
2022/09/15 13:12:08;;;;;;;;;;;18.10;99.90;;;;;;5128831;27;19923;-72
2022/09/15 13:14:40;;;;;;;;;;;18.20;99.90;;;;;;5129036;27;19923;-72
2022/09/15 13:17:11;;;;;;;;;;;18.10;99.90;;;;;;5130545;27;19927;-72
2022/09/15 13:19:45;;;;;;;;;;;17.90;99.90;;;;;;5129404;28;19967;-68
2022/09/15 13:22:10;;;;;;;;;;;17.60;99.90;;;;;;5108029;28;20439;-73
2022/09/15 13:24:55;;;;;;;;;;;17.50;99.90;;;;;;5117283;28;19924;-74
2022/09/15 13:27:22;;;;;;;;;;;17.80;99.90;;;;;;5122404;28;20028;-73
2022/09/15 13:29:51;;;;;;;;;;;18.30;99.90;;;;;;5129344;27;19949;-73
2022/09/15 13:32:19;;;;;;;;;;;18.50;99.90;;;;;;5128068;27;19927;-74
2022/09/15 13:34:55;;;;;;;;;;;18.50;99.90;;;;;;5133728;27;19976;-74
2022/09/15 13:37:38;;;;;;;;;;;18.40;99.90;;;;;;5125914;27;19923;-73
2022/09/15 13:40:25;;;;;;;;;;;18.40;99.90;;;;;;5127888;27;20293;-74
2022/09/15 13:43:09;;;;;;;;;;;18.40;99.90;;;;;;5127369;27;19923;-74
2022/09/15 13:45:38;;;;;;;;;;;18.30;99.90;;;;;;5097188;27;19927;-74
2022/09/15 13:48:28;;;;;;;;;;;18.00;99.60;;;;;;5127991;27;19949;-74
2022/09/15 13:50:59;;;;;;;;;;;17.60;99.20;;;;;;5121532;27;19967;-74
2022/09/15 13:53:24;;;;;;;;;;;17.20;99.50;;;;;;5125281;27;19931;-74
2022/09/15 13:55:52;;;;;;;;;;;17.00;99.90;;;;;;5118959;27;19923;-74
2022/09/15 13:58:19;;;;;;;;;;;16.80;99.90;;;;;;5118059;27;19931;-74
2022/09/15 14:00:53;;;;;;;;;;;16.70;99.90;;;;;;5129468;27;19931;-74
2022/09/15 14:03:26;;;;;;;;;;;16.70;99.90;;;;;;5117324;27;19931;-74
2022/09/15 14:05:52;;;;;;;;;;;16.60;99.90;;;;;;5095418;27;20243;-73
2022/09/15 14:08:31;;;;;;;;;;;16.50;99.90;;;;;;5125225;27;19931;-74
2022/09/15 14:11:01;;;;;;;;;;;16.40;99.90;;;;;;5119892;27;20290;-73
2022/09/15 14:13:28;;;;;;;;;;;16.20;99.90;;;;;;5118089;27;19975;-73
2022/09/15 14:15:57;;;;;;;;;;;15.90;99.90;;;;;;5130532;27;19923;-73
2022/09/15 14:18:23;;;;;;;;;;;15.70;99.90;;;;;;5121479;27;19930;-73
2022/09/15 14:21:02;;;;;;;;;;;15.50;99.90;;;;;;5102681;27;19928;-73
2022/09/15 14:23:28;;;;;;;;;;;15.30;99.90;;;;;;5128407;27;20472;-73
2022/09/15 14:25:55;;;;;;;;;;;15.10;99.90;;;;;;5114996;27;19931;-73
2022/09/15 14:28:24;;;;;;;;;;;14.90;99.90;;;;;;5124900;27;19931;-73